Ashland, OR

2:01 PM PDT on April 21, 2015 (GMT -0700)
Rogue Valley International-Medford | Change Station
CLOSE
Current Station
Airport
Location: Medford,
Elevation: 1329 ft
Nearby Weather Stations

Elev 1329 ft 42.38 °N, 122.87 °W | Updated 8 minutes ago

Clear
Clear
72 °F
Feels Like 72 °F
N
13
Wind Variable Wind from WNW

Today
High -- | Low -- °F
--% Chance of Precip.
Yesterday
High -- | Low -- °F
Precip. -- in
6:20 AM 7:58 PM
Waxing Crescent, 12% visible
Pressure 29.86 in
Visibility 10.0 miles
Clouds Clear
Dew Point 46 °F
Humidity 40%
Rainfall 0.00 in
Snow Depth 4 in , 0 in
UV 10 out of 12
Pollen 9.70 out of 12
Air Quality Not available.
Flu Activity Regional
METAR KMFR 212053Z 29011KT 10SM CLR 22/08 A2987 RMK AO2 SLP110 T02220078 58009

More Conditions Fewer Conditions

Pressure 29.86 in
Visibility 10.0 miles
Clouds Clear
Dew Point 46 °F
Humidity 40%
Rainfall 0.00 in
Snow Depth 4 in , 0 in
UV 10 out of 12
Pollen 9.70 out of 12
Air Quality Not available.
Flu Activity Regional
METAR KMFR 212053Z 29011KT 10SM CLR 22/08 A2987 RMK AO2 SLP110 T02220078 58009

More Conditions Fewer Conditions

10-Day Weather Forecast

Almanac

Astronomy

Apr. 21, 2015 Rise Set
Actual Time 6:20 AM PDT 7:58 PM PDT
Civil Twilight 5:51 AM PDT 8:28 PM PDT
Nautical Twilight 5:15 AM PDT 9:04 PM PDT
Astronomical Twilight 4:37 AM PDT 9:42 PM PDT
Moon 8:41 AM PDT 11:27 PM PDT
Length of Visible Light 14h 36m
Length of Day
13h 37m
Tomorrow will be 2m 38s longer.
Waxing Crescent, 12% of the Moon is Illuminated
Today
Waxing Crescent
Apr 25
First Quarter
May 3
Full
May 11
Last Quarter
May 18
New

Today's Extremes

State Highs State Lows

Community

WunderPhotos

Upload Photos

1,815,540 photos uploaded!

WunderBlogs® & News

Nearby

Snow Depth

Station Depth Elevation
Big Red Mountain 4 in 6250 ft
Fish Lake 0 in 4665 ft
Sevenmile Marsh 0 in 6200 ft
Annie Springs 24 in 6020 ft
Toketee Airstrip 0 in 3240 ft

Earthquake Activity

City Distance Mag. Time & Date
Hydesville, California 129 miles 2.5 9:50 PM PDT
2015-04-20
Ferndale, California 162 miles 3.0 9:40 PM PDT
2015-04-19
Minimum magnitude displayed is 2.5.

Coastal Water Temperatures

Place Temperature
No Stations Reporting

Nearby Weather Stations